Time;durP1;ratioP1;P1;durP2;ratioP2;P2;SDS_P1;SDS_P2;PMS_P1;PMS_P2;Temp;Humidity;BMP_temperature;BMP_pressure;BME280_temperature;BME280_humidity;BME280_pressure;Samples;Min_cycle;Max_cycle;Signal;HPM_P1;HPM_P2
2022/04/29 00:02:18;;;;;;;0.00;0.00;;;11.90;87.30;;;9.97;63.97;101045.78;10397629;27;96665;-89
2022/04/29 00:07:21;;;;;;;0.00;0.00;;;11.80;89.50;;;9.82;64.42;101036.56;10462649;27;96507;-89
2022/04/29 00:12:25;;;;;;;0.00;0.00;;;11.60;89.60;;;9.66;64.85;101039.81;10415773;27;96602;-89
2022/04/29 00:17:28;;;;;;;0.00;0.00;;;11.40;90.30;;;9.50;65.08;101042.22;10407948;27;98700;-89
2022/04/29 00:22:31;;;;;;;0.00;0.00;;;11.30;90.00;;;9.36;65.63;101035.50;10375344;27;96568;-89
2022/04/29 00:27:35;;;;;;;0.00;0.00;;;11.10;90.40;;;9.24;65.65;101034.81;10377896;27;98203;-88
2022/04/29 00:32:40;;;;;;;0.00;0.00;;;11.00;90.40;;;9.15;65.56;101034.78;10392023;27;98084;-89
2022/04/29 00:37:51;;;;;;;0.00;0.00;;;10.90;90.30;;;9.07;65.57;101033.69;10418697;27;96609;-89
2022/04/29 00:42:55;;;;;;;0.00;0.00;;;10.80;90.60;;;8.98;66.14;101025.69;10400755;27;98126;-88
2022/04/29 00:47:58;;;;;;;0.00;0.00;;;10.80;91.20;;;8.91;65.75;101038.66;10393995;27;96555;-88
2022/04/29 00:53:02;;;;;;;0.00;0.00;;;10.60;90.50;;;8.86;65.90;101032.94;10373461;27;96872;-90
2022/04/29 00:58:22;;;;;;;0.03;0.03;;;10.60;91.00;;;8.72;67.01;101039.47;10395868;27;96775;-89
2022/04/29 01:03:27;;;;;;;0.00;0.00;;;10.50;92.30;;;8.62;67.96;101045.69;10384698;27;96554;-89
2022/04/29 01:08:31;;;;;;;0.10;0.10;;;10.40;92.60;;;8.51;68.33;101038.69;10421527;27;97098;-89
2022/04/29 01:13:35;;;;;;;0.07;0.00;;;10.30;93.30;;;8.41;69.01;101048.41;10391690;28;96583;-89
2022/04/29 01:18:38;;;;;;;0.00;0.00;;;10.20;93.50;;;8.32;69.95;101050.00;10419968;27;96569;-89
2022/04/29 01:23:43;;;;;;;0.10;0.10;;;10.10;95.10;;;8.28;70.64;101038.88;10399636;27;97151;-89
2022/04/29 01:28:46;;;;;;;0.00;0.00;;;10.00;95.50;;;8.23;71.25;101040.22;10425076;27;97128;-89
2022/04/29 01:33:50;;;;;;;0.00;0.00;;;10.00;97.10;;;8.20;71.21;101033.38;10399256;27;96587;-89
2022/04/29 01:38:53;;;;;;;0.03;0.03;;;9.90;96.80;;;8.21;71.49;101027.09;10411832;27;96592;-88
2022/04/29 01:43:56;;;;;;;0.00;0.00;;;10.00;97.10;;;8.19;71.97;101031.69;10365241;28;97229;-88
2022/04/29 01:48:59;;;;;;;0.43;0.33;;;9.90;98.60;;;8.16;72.54;101026.69;10396061;27;98113;-88
2022/04/29 01:54:02;;;;;;;0.00;0.00;;;9.90;99.90;;;8.14;72.74;101033.06;10419881;28;96443;-89
2022/04/29 01:59:06;;;;;;;0.30;0.10;;;9.90;99.60;;;8.16;73.23;101031.13;10376546;27;96578;-89
2022/04/29 02:04:09;;;;;;;0.00;0.00;;;9.90;99.90;;;8.19;73.48;101026.41;10376205;28;96574;-90
2022/04/29 02:09:12;;;;;;;0.00;0.00;;;9.90;99.90;;;8.26;73.86;101021.41;10335307;28;96548;-90
2022/04/29 02:14:17;;;;;;;0.00;0.00;;;9.90;99.90;;;8.33;74.14;101020.72;10350233;27;97301;-89
2022/04/29 02:19:20;;;;;;;0.00;0.00;;;10.00;99.90;;;8.39;74.12;101018.56;10387737;28;97645;-88
2022/04/29 02:24:23;;;;;;;0.00;0.00;;;10.10;99.90;;;8.40;73.85;101014.97;10349718;28;96766;-87
2022/04/29 02:29:29;;;;;;;0.00;0.00;;;10.10;99.90;;;8.42;74.39;101011.19;10375052;28;96648;-89
2022/04/29 02:34:32;;;;;;;0.00;0.00;;;10.10;99.90;;;8.44;74.72;101016.34;10381256;27;97609;-89
2022/04/29 02:39:35;;;;;;;0.00;0.00;;;10.10;99.90;;;8.48;74.34;101017.78;10417348;27;96543;-89
2022/04/29 02:44:40;;;;;;;0.00;0.00;;;10.10;99.90;;;8.46;74.20;101012.63;10405016;27;97118;-89
2022/04/29 02:49:44;;;;;;;0.00;0.00;;;10.20;99.90;;;8.43;74.48;101012.03;10399879;27;97094;-88
2022/04/29 02:54:47;;;;;;;0.00;0.00;;;10.10;99.90;;;8.36;74.82;101021.50;10388054;27;96565;-88
2022/04/29 02:59:50;;;;;;;0.23;0.23;;;10.10;99.90;;;8.25;74.65;101011.78;10387111;27;96530;-89
2022/04/29 03:04:53;;;;;;;0.00;0.00;;;10.00;99.90;;;8.17;75.29;101015.13;10398988;27;97551;-88
2022/04/29 03:09:56;;;;;;;0.00;0.00;;;9.90;99.90;;;8.13;75.66;101024.28;10407235;27;96648;-89
2022/04/29 03:15:15;;;;;;;0.00;0.00;;;9.80;99.90;;;8.07;75.85;101021.31;10422597;27;96679;-89
2022/04/29 03:20:19;;;;;;;0.00;0.00;;;9.80;99.90;;;8.01;75.93;101023.53;10397647;27;96878;-89
2022/04/29 03:25:22;;;;;;;0.00;0.00;;;9.70;99.90;;;7.98;75.77;101026.44;10407199;27;96567;-88
2022/04/29 03:30:25;;;;;;;0.00;0.00;;;9.70;99.90;;;7.97;75.96;101026.56;10375467;27;97380;-90
2022/04/29 03:35:28;;;;;;;0.00;0.00;;;9.70;99.90;;;7.95;76.31;101031.16;10388109;27;97552;-89
2022/04/29 03:40:31;;;;;;;0.00;0.00;;;9.70;99.90;;;7.93;76.41;101033.94;10407501;27;97145;-89
2022/04/29 03:45:34;;;;;;;0.00;0.00;;;9.70;99.90;;;7.92;76.40;101031.44;10416596;27;98868;-90
2022/04/29 03:50:38;;;;;;;0.00;0.00;;;9.60;99.90;;;7.92;76.62;101037.56;10401829;27;96708;-91
2022/04/29 03:55:41;;;;;;;0.00;0.00;;;9.60;99.90;;;7.91;76.93;101041.16;10387122;27;96549;-91
2022/04/29 04:00:44;;;;;;;0.00;0.00;;;9.60;99.90;;;7.95;77.34;101047.03;10412714;27;96589;-91
2022/04/29 04:11:08;;;;;;;0.00;0.00;;;9.70;99.90;;;8.05;77.53;101050.59;10391948;28;97743;-91
2022/04/29 04:16:12;;;;;;;0.50;0.50;;;9.70;99.90;;;8.13;77.63;101055.22;10407409;27;98346;-91
2022/04/29 04:21:15;;;;;;;0.00;0.00;;;9.80;99.90;;;8.23;77.80;101056.13;10385705;27;98593;-91
2022/04/29 04:26:18;;;;;;;0.17;0.17;;;9.90;99.90;;;8.35;77.51;101062.16;10439696;27;96437;-91
2022/04/29 04:31:21;;;;;;;0.00;0.00;;;10.00;99.90;;;8.51;77.92;101063.34;10406881;27;96514;-91
2022/04/29 04:36:24;;;;;;;0.00;0.00;;;10.10;99.90;;;8.67;77.98;101065.53;10397702;27;96788;-91
2022/04/29 04:41:27;;;;;;;0.00;0.00;;;10.20;99.90;;;8.83;78.28;101071.16;10385590;27;96617;-92
2022/04/29 04:46:30;;;;;;;0.00;0.00;;;10.40;99.90;;;8.99;77.63;101065.31;10380520;27;96583;-91
2022/04/29 04:51:33;;;;;;;0.73;0.73;;;10.50;99.90;;;9.16;77.38;101074.44;10389746;27;98438;-91
2022/04/29 04:56:36;;;;;;;0.23;0.23;;;10.70;99.90;;;9.31;77.00;101073.06;10418358;27;96414;-91
2022/04/29 05:01:39;;;;;;;0.07;0.07;;;10.80;99.90;;;9.46;77.57;101076.13;10393388;27;98593;-91
2022/04/29 05:06:42;;;;;;;0.00;0.00;;;10.90;99.90;;;9.62;77.55;101067.63;10382625;27;97371;-91
2022/04/29 05:11:45;;;;;;;0.00;0.00;;;11.10;99.90;;;9.79;77.48;101068.72;10369516;27;98286;-91
2022/04/29 05:17:05;;;;;;;0.00;0.00;;;11.30;99.90;;;9.97;76.82;101063.53;10397628;27;97595;-91
2022/04/29 05:22:08;;;;;;;4.50;0.33;;;11.50;99.90;;;10.15;76.36;101070.63;10384652;27;97923;-91
2022/04/29 05:27:11;;;;;;;0.00;0.00;;;11.60;99.90;;;10.35;75.99;101073.25;10379387;28;96368;-91
2022/04/29 05:32:15;;;;;;;0.00;0.00;;;11.80;99.90;;;10.62;75.19;101072.44;10365314;28;96629;-91
2022/04/29 05:37:19;;;;;;;0.00;0.00;;;12.00;99.90;;;10.87;74.12;101066.44;10377566;28;96607;-92
2022/04/29 05:42:23;;;;;;;0.40;0.37;;;12.30;99.90;;;11.12;73.19;101062.22;10398492;27;96721;-91
2022/04/29 05:47:26;;;;;;;0.00;0.00;;;12.50;99.90;;;11.35;72.08;101070.59;10403402;27;96515;-91
2022/04/29 05:52:29;;;;;;;0.00;0.00;;;12.80;99.90;;;11.61;72.93;101065.34;10369200;28;97654;-92
2022/04/29 05:57:32;;;;;;;0.00;0.00;;;13.00;99.90;;;11.87;72.63;101065.41;10379468;27;98110;-91
2022/04/29 06:02:38;;;;;;;0.00;0.00;;;13.20;99.90;;;12.18;70.46;101073.81;10378659;27;98279;-92
2022/04/29 06:07:41;;;;;;;0.37;0.37;;;13.50;99.90;;;12.48;69.20;101080.47;10365881;28;96633;-91
2022/04/29 06:12:45;;;;;;;0.83;0.13;;;13.80;99.90;;;12.75;67.89;101083.91;10379105;27;96658;-92
2022/04/29 06:17:48;;;;;;;0.00;0.00;;;14.10;99.90;;;13.00;64.45;101079.50;10377849;28;96432;-91
2022/04/29 06:22:51;;;;;;;0.00;0.00;;;14.40;99.90;;;13.24;62.59;101081.44;10378259;27;96699;-92
2022/04/29 06:27:54;;;;;;;0.10;0.10;;;14.60;99.90;;;13.48;62.03;101081.47;10376301;28;96463;-92
2022/04/29 06:32:57;;;;;;;0.00;0.00;;;14.80;98.60;;;13.68;59.94;101082.00;10372440;27;96521;-91
2022/04/29 06:38:00;;;;;;;0.20;0.20;;;15.10;96.60;;;13.82;58.47;101081.31;10344061;28;97461;-91
2022/04/29 06:43:06;;;;;;;0.20;0.20;;;15.30;94.80;;;13.95;55.56;101080.81;10373394;28;96503;-91
2022/04/29 06:48:09;;;;;;;0.00;0.00;;;15.40;87.40;;;14.08;54.90;101081.13;10337582;28;96408;-91
2022/04/29 06:53:12;;;;;;;0.00;0.00;;;15.50;89.70;;;14.23;54.83;101075.09;10336510;28;96945;-92
2022/04/29 06:58:15;;;;;;;0.20;0.20;;;15.70;88.10;;;14.34;52.38;101075.59;10333926;28;96548;-91
2022/04/29 07:03:18;;;;;;;0.00;0.00;;;15.80;82.70;;;14.51;51.18;101076.38;10337338;28;96652;-91
2022/04/29 07:08:23;;;;;;;0.20;0.20;;;15.90;79.20;;;14.65;51.05;101075.69;10333661;28;96444;-92
2022/04/29 07:13:25;;;;;;;3.42;0.30;;;16.10;74.60;;;14.83;49.27;101072.75;10366806;28;96555;-91
2022/04/29 07:18:29;;;;;;;0.00;0.00;;;16.20;74.60;;;15.07;45.80;101074.47;10362872;28;96580;-91
2022/04/29 07:23:32;;;;;;;0.00;0.00;;;16.40;69.90;;;15.27;46.26;101080.22;10378182;28;96429;-91
2022/04/29 07:28:34;;;;;;;0.00;0.00;;;16.60;68.80;;;15.38;41.42;101084.34;10364330;28;96538;-92
2022/04/29 07:33:37;;;;;;;0.45;0.30;;;16.80;60.90;;;15.50;42.87;101077.56;10375272;27;96887;-92
2022/04/29 07:44:01;;;;;;;;;;;17.10;60.90;;;15.87;42.27;101062.53;10405080;27;96568;-89
2022/04/29 07:49:05;;;;;;;0.20;0.20;;;17.30;60.30;;;16.03;41.18;101068.59;10390631;27;97470;-90
2022/04/29 07:54:08;;;;;;;0.22;0.22;;;17.40;59.00;;;16.17;40.60;101069.63;10414700;27;96568;-92
2022/04/29 07:59:11;;;;;;;0.20;0.13;;;17.60;58.90;;;16.30;39.16;101064.44;10374560;28;96518;-91
2022/04/29 08:04:15;;;;;;;0.17;0.17;;;17.70;56.30;;;16.41;38.96;101062.34;10379729;27;96770;-91
2022/04/29 08:09:18;;;;;;;0.45;0.45;;;17.90;55.60;;;16.53;38.62;101069.72;10373423;27;96598;-92
2022/04/29 08:14:20;;;;;;;0.10;0.10;;;18.00;54.90;;;16.69;38.69;101065.19;10373862;28;96515;-91
2022/04/29 08:19:43;;;;;;;0.50;0.35;;;18.20;54.80;;;16.94;39.40;101063.06;10378823;27;97259;-91
2022/04/29 08:24:47;;;;;;;0.00;0.00;;;18.30;55.50;;;17.02;39.83;101055.72;10355673;28;96465;-90
2022/04/29 08:29:50;;;;;;;0.10;0.10;;;18.40;55.80;;;17.08;39.47;101048.75;10394463;27;97473;-91
2022/04/29 08:34:53;;;;;;;0.10;0.10;;;18.50;55.30;;;17.17;39.42;101050.31;10374814;27;97507;-91
2022/04/29 08:39:56;;;;;;;0.00;0.00;;;18.60;54.60;;;17.34;40.02;101043.69;10405941;27;96576;-91
2022/04/29 08:44:59;;;;;;;0.00;0.00;;;18.80;55.30;;;17.49;39.04;101043.59;10415820;28;96610;-91
2022/04/29 08:50:08;;;;;;;0.00;0.00;;;18.90;54.10;;;17.63;39.03;101040.03;10396426;28;96517;-92
2022/04/29 09:00:38;;;;;;;0.03;0.03;;;19.10;54.40;;;17.81;36.37;101022.59;10385637;28;96580;-91
2022/04/29 09:05:43;;;;;;;0.10;0.10;;;19.30;51.90;;;17.91;35.43;101018.53;10427688;27;96527;-92
2022/04/29 09:10:56;;;;;;;0.05;0.05;;;19.40;50.70;;;17.99;32.73;101011.34;10414121;28;96460;-92
2022/04/29 09:16:12;;;;;;;0.20;0.15;;;19.50;48.50;;;18.04;33.37;101004.34;10372752;27;98363;-92
2022/04/29 09:21:19;;;;;;;0.00;0.00;;;19.60;48.30;;;18.19;35.54;100993.50;10372919;27;97191;-91
2022/04/29 09:26:26;;;;;;;0.08;0.08;;;19.70;50.10;;;18.37;34.02;100993.78;10386464;27;96621;-92
2022/04/29 09:32:07;;;;;;;0.00;0.00;;;19.90;48.60;;;18.56;32.62;100986.00;10418895;27;96787;-92
2022/04/29 09:37:19;;;;;;;0.00;0.00;;;20.00;48.20;;;18.69;32.64;100978.00;10400578;27;97202;-91
2022/04/29 09:42:42;;;;;;;0.10;0.10;;;20.20;47.40;;;18.64;32.41;100978.56;10380642;28;96399;-91
2022/04/29 09:47:59;;;;;;;0.45;0.45;;;20.20;46.30;;;18.71;32.88;100968.72;10410496;27;96463;-91
2022/04/29 09:53:25;;;;;;;0.20;0.20;;;20.30;47.50;;;19.06;33.40;100965.03;10378544;28;96523;-91
2022/04/29 09:58:28;;;;;;;0.65;0.20;;;20.50;47.10;;;19.39;30.90;100949.75;10378722;27;96673;-90
2022/04/29 10:03:35;;;;;;;0.00;0.00;;;20.80;44.70;;;19.53;29.21;100953.25;10372458;27;97729;-92
2022/04/29 10:08:41;;;;;;;0.57;0.45;;;21.00;43.20;;;20.04;29.37;100949.91;10396267;27;96521;-89
2022/04/29 10:13:46;;;;;;;1.10;0.45;;;21.40;43.30;;;20.35;30.13;100951.03;10377165;27;96569;-91
2022/04/29 10:24:24;;;;;;;0.13;0.13;;;21.60;42.40;;;19.74;29.68;100947.69;10385356;27;96547;-90
2022/04/29 10:29:27;;;;;;;0.10;0.10;;;21.40;42.00;;;19.36;31.73;100950.13;10360569;28;96571;-90
2022/04/29 10:34:31;;;;;;;3.00;1.65;;;21.00;45.10;;;19.32;31.48;100945.41;10389490;27;96663;-90
2022/04/29 10:39:34;;;;;;;0.00;0.00;;;20.80;44.60;;;19.65;29.32;100932.75;10418022;28;96506;-92
2022/04/29 10:45:02;;;;;;;0.10;0.10;;;21.10;43.30;;;19.89;29.76;100935.81;10362170;28;96586;-91
2022/04/29 10:50:31;;;;;;;0.00;0.00;;;21.40;43.00;;;20.05;28.72;100920.00;10403924;27;96661;-92
2022/04/29 10:55:35;;;;;;;0.00;0.00;;;21.60;42.10;;;20.25;28.78;100921.78;10406949;27;96853;-90
2022/04/29 11:00:37;;;;;;;0.00;0.00;;;21.80;41.80;;;20.57;29.32;100920.84;10390673;28;98074;-92
2022/04/29 11:05:42;;;;;;;0.45;0.45;;;22.00;42.60;;;20.65;26.59;100917.06;10416528;27;97480;-90
2022/04/29 11:10:59;;;;;;;0.22;0.10;;;22.30;40.00;;;20.36;28.02;100913.03;10421787;28;96383;-90
2022/04/29 11:16:15;;;;;;;0.00;0.00;;;22.10;40.20;;;19.94;29.83;100904.47;10418457;27;96481;-90
2022/04/29 11:26:46;;;;;;;0.00;0.00;;;21.40;43.50;;;20.04;30.09;100885.97;10430457;27;98681;-88
2022/04/29 11:31:49;;;;;;;0.00;0.00;;;21.60;42.40;;;19.98;30.90;100888.69;10454283;27;96702;-89
2022/04/29 11:36:56;;;;;;;0.03;0.03;;;21.50;43.60;;;19.91;31.70;100888.72;10411332;27;96578;-89
2022/04/29 11:42:01;;;;;;;0.00;0.00;;;21.40;43.30;;;19.78;30.39;100878.78;10380479;27;98795;-89
2022/04/29 11:47:05;;;;;;;0.00;0.00;;;21.30;43.10;;;19.57;30.51;100875.50;10390681;27;96489;-89
2022/04/29 11:52:26;;;;;;;0.00;0.00;;;21.10;41.80;;;19.34;30.57;100867.84;10458839;27;96660;-88
2022/04/29 11:57:43;;;;;;;1.38;0.55;;;20.90;41.50;;;19.05;29.57;100869.09;10427106;27;96516;-89
2022/04/29 12:02:46;;;;;;;0.00;0.00;;;20.60;40.10;;;19.02;30.37;100861.47;10449223;27;96603;-88
2022/04/29 12:07:49;;;;;;;0.32;0.32;;;20.50;42.20;;;19.42;29.81;100840.69;10415774;27;96539;-89
2022/04/29 12:12:58;;;;;;;0.68;0.50;;;20.70;41.60;;;20.12;28.99;100835.50;10400891;27;96576;-89
2022/04/29 12:18:11;;;;;;;0.08;0.00;;;21.30;42.60;;;20.15;28.26;100832.38;10391049;28;97059;-88
2022/04/29 12:23:24;;;;;;;0.00;0.00;;;21.50;41.30;;;20.14;29.66;100833.41;10398886;27;96684;-88
2022/04/29 12:28:32;;;;;;;0.00;0.00;;;21.50;42.60;;;20.32;26.85;100833.53;10395291;28;96702;-88
2022/04/29 12:39:36;;;;;;;0.00;0.00;;;22.10;40.60;;;21.18;27.27;100816.72;10416386;27;96648;-87
2022/04/29 12:45:10;;;;;;;0.00;0.00;;;22.50;40.50;;;21.10;25.53;100809.69;10420419;27;97111;-88
2022/04/29 12:50:39;;;;;;;0.00;0.00;;;22.50;35.90;;;21.23;26.25;100810.63;10425134;27;96573;-88
2022/04/29 12:55:42;;;;;;;0.38;0.38;;;22.70;36.60;;;21.49;26.84;100799.56;10421223;27;96860;-88
2022/04/29 13:00:52;;;;;;;0.03;0.03;;;23.30;38.90;;;21.84;25.70;100791.66;10446277;27;97323;-87
2022/04/29 13:05:58;;;;;;;0.00;0.00;;;23.90;37.60;;;22.31;25.65;100778.34;10408553;27;97751;-88
2022/04/29 13:11:03;;;;;;;0.80;0.80;;;24.70;37.00;;;22.93;25.54;100775.31;10380316;27;96917;-88
2022/04/29 13:16:07;;;;;;;0.17;0.17;;;25.50;36.30;;;23.47;25.16;100767.81;10420483;27;96554;-88
2022/04/29 13:21:11;;;;;;;0.00;0.00;;;26.30;37.40;;;24.17;24.64;100756.75;10419832;27;96799;-88
2022/04/29 13:26:15;;;;;;;0.00;0.00;;;27.00;36.20;;;24.62;22.67;100755.91;10453669;27;96540;-86
2022/04/29 13:31:18;;;;;;;0.10;0.10;;;27.50;36.00;;;24.31;22.47;100754.53;10407669;27;96648;-88
2022/04/29 13:36:21;;;;;;;0.00;0.00;;;27.20;33.20;;;23.52;22.75;100748.94;10430749;27;97548;-88
2022/04/29 13:41:24;;;;;;;0.22;0.22;;;26.30;34.30;;;22.84;23.89;100753.09;10398081;27;96811;-88
2022/04/29 13:46:27;;;;;;;0.43;0.30;;;25.30;34.50;;;21.90;25.57;100752.88;10421366;27;96486;-88
2022/04/29 13:51:30;;;;;;;0.08;0.08;;;24.20;37.00;;;21.18;26.85;100757.25;10393942;28;96629;-87
2022/04/29 13:56:35;;;;;;;0.00;0.00;;;23.30;37.10;;;20.57;26.61;100756.16;10381389;27;96576;-89
2022/04/29 14:01:38;;;;;;;0.00;0.00;;;22.50;37.80;;;20.14;26.69;100750.59;10407026;28;96490;-89
2022/04/29 14:06:41;;;;;;;0.00;0.00;;;22.00;37.80;;;20.22;26.49;100749.53;10393334;27;96478;-89
2022/04/29 14:11:44;;;;;;;0.10;0.10;;;21.90;36.60;;;20.81;26.66;100740.13;10417915;27;96610;-90
2022/04/29 14:16:47;;;;;;;0.00;0.00;;;22.20;37.90;;;22.05;27.15;100730.78;10403671;27;96635;-88
2022/04/29 14:21:51;;;;;;;0.03;0.03;;;23.30;39.70;;;22.84;25.21;100722.47;10387499;27;96592;-90
2022/04/29 14:26:54;;;;;;;0.00;0.00;;;24.20;37.20;;;22.62;24.53;100717.66;10401715;27;97272;-88
2022/04/29 14:31:57;;;;;;;0.00;0.00;;;24.10;35.60;;;22.78;25.36;100720.69;10416401;28;96606;-86
2022/04/29 14:37:00;;;;;;;0.00;0.00;;;24.20;37.10;;;22.97;25.46;100719.56;10383451;27;98402;-86
2022/04/29 14:42:05;;;;;;;0.00;0.00;;;24.30;37.80;;;23.21;24.55;100718.47;10387881;27;96667;-85
2022/04/29 14:47:09;;;;;;;0.03;0.03;;;24.50;36.00;;;23.23;24.50;100724.47;10397122;27;97512;-86
2022/04/29 14:52:13;;;;;;;0.00;0.00;;;24.60;36.30;;;23.07;26.04;100722.50;10399668;27;96752;-84
2022/04/29 14:57:18;;;;;;;0.00;0.00;;;24.50;38.10;;;23.39;26.26;100713.94;10396988;27;96704;-84
2022/04/29 15:02:22;;;;;;;0.00;0.00;;;24.70;38.00;;;23.87;25.41;100702.72;10452081;27;96881;-85
2022/04/29 15:07:25;;;;;;;0.00;0.00;;;25.10;37.70;;;24.49;24.68;100697.28;10416896;27;97731;-89
2022/04/29 15:17:57;;;;;;;0.40;0.40;;;25.40;35.40;;;23.14;24.76;100697.97;10403886;27;96774;-89
2022/04/29 15:23:00;;;;;;;0.00;0.00;;;24.50;36.10;;;23.11;24.39;100696.56;10401779;27;96734;-89
2022/04/29 15:28:05;;;;;;;0.00;0.00;;;24.50;36.20;;;23.34;24.72;100692.16;10379590;27;96647;-89
2022/04/29 15:33:10;;;;;;;0.00;0.00;;;24.50;35.50;;;23.65;24.89;100686.28;10406567;27;96696;-88
2022/04/29 15:38:14;;;;;;;0.00;0.00;;;24.60;37.10;;;23.95;25.99;100671.66;10395964;27;96783;-86
2022/04/29 15:43:18;;;;;;;0.00;0.00;;;24.90;38.60;;;24.30;25.00;100668.72;10430136;27;96527;-88
2022/04/29 15:48:23;;;;;;;0.00;0.00;;;25.30;37.60;;;24.29;24.46;100664.34;10416190;27;96633;-90
2022/04/29 15:53:27;;;;;;;0.00;0.00;;;25.40;36.80;;;24.21;24.57;100659.31;10377075;27;96515;-90
2022/04/29 15:58:30;;;;;;;0.35;0.20;;;25.40;36.70;;;24.20;25.18;100663.09;10371172;27;96896;-90
2022/04/29 16:03:32;;;;;;;0.10;0.10;;;25.30;36.50;;;24.11;24.00;100662.69;10392665;28;96582;-91
2022/04/29 16:08:36;;;;;;;0.00;0.00;;;25.20;36.30;;;24.09;24.28;100664.81;10373002;27;96955;-91
2022/04/29 16:13:42;;;;;;;0.20;0.20;;;25.10;36.30;;;23.89;23.76;100656.34;10373500;28;96511;-91
2022/04/29 16:29:29;;;;;;;0.00;0.00;;;24.50;37.40;;;22.57;25.92;100657.94;10375876;28;96547;-91
2022/04/29 16:34:32;;;;;;;0.08;0.08;;;24.10;37.90;;;22.02;27.48;100660.91;10412750;27;97821;-90
2022/04/29 16:39:35;;;;;;;0.10;0.10;;;23.50;39.10;;;21.40;27.42;100665.72;10396738;27;97527;-90
2022/04/29 16:44:43;;;;;;;0.20;0.20;;;23.00;39.30;;;20.89;28.21;100660.72;10380545;27;96564;-90
2022/04/29 16:49:47;;;;;;;0.40;0.40;;;22.50;40.30;;;20.34;29.28;100664.13;10395357;27;96541;-89
2022/04/29 16:54:51;;;;;;;0.00;0.00;;;21.90;41.20;;;19.78;30.22;100671.13;10403337;27;96439;-90
2022/04/29 16:59:54;;;;;;;0.00;0.00;;;21.40;42.30;;;19.33;31.64;100686.50;10422092;27;96521;-89
2022/04/29 17:04:57;;;;;;;0.00;0.00;;;20.90;43.00;;;18.90;32.37;100680.81;10380809;28;96424;-89
2022/04/29 17:10:00;;;;;;;0.28;0.25;;;20.50;43.70;;;18.49;33.31;100689.94;10380975;27;96651;-89
2022/04/29 17:15:04;;;;;;;1.25;0.20;;;20.10;44.90;;;18.17;34.10;100680.81;10382516;28;96375;-88
2022/04/29 17:20:09;;;;;;;0.00;0.00;;;19.80;45.20;;;17.83;35.26;100684.50;10380633;27;97557;-90
2022/04/29 17:25:14;;;;;;;0.00;0.00;;;19.50;46.20;;;17.52;35.91;100687.69;10364761;28;96515;-89
2022/04/29 17:30:17;;;;;;;0.00;0.00;;;19.20;46.80;;;17.18;36.67;100700.16;10382036;27;96484;-90
2022/04/29 17:35:22;;;;;;;0.00;0.00;;;18.80;48.10;;;16.84;37.14;100695.59;10396003;27;97266;-88
2022/04/29 17:45:46;;;;;;;0.00;0.00;;;18.20;48.50;;;16.28;37.39;100707.13;10378751;28;96480;-89
2022/04/29 17:50:50;;;;;;;0.47;0.45;;;17.90;48.10;;;15.99;38.23;100717.97;10402328;27;96449;-89
2022/04/29 17:55:53;;;;;;;0.05;0.05;;;17.60;49.20;;;15.72;38.58;100719.56;10404361;28;96404;-88
2022/04/29 18:00:56;;;;;;;0.10;0.10;;;17.30;49.90;;;15.49;39.04;100727.69;10379387;27;96619;-89
2022/04/29 18:05:59;;;;;;;0.00;0.00;;;17.00;49.70;;;15.29;39.31;100726.56;10364146;27;96591;-88
2022/04/29 18:11:03;;;;;;;0.00;0.00;;;16.80;50.10;;;15.11;40.17;100737.66;10373161;28;96619;-89
2022/04/29 18:16:06;;;;;;;0.52;0.20;;;16.60;51.00;;;14.92;40.45;100736.34;10392735;28;96488;-90
2022/04/29 18:21:09;;;;;;;0.00;0.00;;;16.40;51.50;;;14.75;40.89;100753.56;10404511;27;96961;-89
2022/04/29 18:26:13;;;;;;;0.38;0.38;;;16.30;51.40;;;14.59;41.21;100739.34;10376618;28;96358;-88
2022/04/29 18:31:19;;;;;;;0.00;0.00;;;16.10;52.20;;;14.50;41.57;100751.13;10414618;27;96821;-89
2022/04/29 18:36:22;;;;;;;0.05;0.05;;;16.00;52.10;;;14.41;41.91;100746.84;10390958;27;96685;-90
2022/04/29 18:41:25;;;;;;;0.30;0.30;;;15.90;52.90;;;14.32;42.27;100755.91;10377065;28;97342;-92
2022/04/29 18:46:28;;;;;;;0.30;0.30;;;15.80;53.30;;;14.25;42.52;100768.34;10401672;27;97541;-90
2022/04/29 18:51:31;;;;;;;1.33;0.57;;;15.70;53.40;;;14.18;42.36;100762.88;10418616;27;96658;-89
2022/04/29 18:56:35;;;;;;;0.03;0.03;;;15.60;53.50;;;14.14;42.65;100767.72;10384481;28;96467;-89
2022/04/29 19:01:38;;;;;;;0.00;0.00;;;15.60;53.60;;;14.07;42.72;100769.44;10396895;27;96675;-88
2022/04/29 19:06:41;;;;;;;0.57;0.40;;;15.50;53.40;;;13.99;43.06;100772.19;10376064;27;96453;-88
2022/04/29 19:11:45;;;;;;;0.00;0.00;;;15.40;53.90;;;13.89;43.10;100774.25;10417246;27;97377;-89
2022/04/29 19:16:48;;;;;;;0.87;0.67;;;15.30;53.60;;;13.77;44.98;100772.97;10416516;28;96447;-89
2022/04/29 19:21:51;;;;;;;0.00;0.00;;;15.30;55.20;;;13.58;46.56;100780.41;10393406;27;96618;-90
2022/04/29 19:26:54;;;;;;;0.37;0.37;;;15.10;55.70;;;13.40;46.86;100790.47;10377169;28;96356;-89
2022/04/29 19:31:57;;;;;;;0.00;0.00;;;15.00;56.70;;;13.24;46.46;100787.84;10377039;27;97770;-88
2022/04/29 19:37:00;;;;;;;0.00;0.00;;;14.80;56.10;;;13.19;45.45;100779.47;10376763;27;97469;-88
2022/04/29 19:42:08;;;;;;;0.00;0.00;;;14.70;55.30;;;13.17;45.04;100784.16;10375079;28;96571;-89
2022/04/29 19:47:13;;;;;;;0.00;0.00;;;14.70;55.60;;;13.12;44.95;100780.16;10410173;27;96790;-87
2022/04/29 19:52:16;;;;;;;0.00;0.00;;;14.60;55.00;;;13.11;44.78;100777.66;10429978;27;96539;-87
2022/04/29 20:08:23;;;;;;;0.73;0.73;;;14.50;54.70;;;12.89;46.48;100783.69;10411879;27;96585;-86
2022/04/29 20:13:29;;;;;;;0.07;0.07;;;14.40;55.50;;;12.75;47.92;100790.56;10417384;27;96506;-86
2022/04/29 20:18:32;;;;;;;0.87;0.33;;;14.30;57.00;;;12.53;49.60;100795.56;10404408;27;97842;-86
2022/04/29 20:23:35;;;;;;;0.00;0.00;;;14.20;59.10;;;12.32;50.41;100804.03;10378444;27;98019;-86
2022/04/29 20:28:39;;;;;;;0.27;0.17;;;14.00;59.30;;;12.12;50.87;100808.00;10382089;27;96710;-86
2022/04/29 20:33:42;;;;;;;0.00;0.00;;;13.80;59.50;;;11.91;51.94;100804.94;10421322;27;97517;-86
2022/04/29 20:38:46;;;;;;;0.13;0.13;;;13.60;61.00;;;11.71;53.12;100809.66;10416672;27;96652;-86
2022/04/29 20:44:00;;;;;;;0.00;0.00;;;13.40;63.70;;;11.48;53.98;100810.22;10398200;27;96720;-86
2022/04/29 20:49:05;;;;;;;0.00;0.00;;;13.20;65.10;;;11.26;54.32;100808.09;10395185;27;96586;-86
2022/04/29 20:54:08;;;;;;;0.10;0.10;;;12.90;65.20;;;11.11;54.81;100825.66;10384193;27;96716;-86
2022/04/29 20:59:13;;;;;;;0.00;0.00;;;12.70;64.90;;;10.96;55.57;100831.50;10396360;27;96652;-86
2022/04/29 21:04:21;;;;;;;0.00;0.00;;;12.60;64.40;;;10.88;56.10;100834.13;10402431;27;97365;-86
2022/04/29 21:09:24;;;;;;;0.00;0.00;;;12.50;66.40;;;10.74;56.93;100825.88;10383754;27;97435;-86
2022/04/29 21:14:27;;;;;;;0.40;0.40;;;12.40;67.40;;;10.60;57.30;100824.56;10392948;27;96604;-85
2022/04/29 21:19:30;;;;;;;0.00;0.00;;;12.20;67.20;;;10.51;57.28;100830.81;10389542;27;98686;-86
2022/04/29 21:24:33;;;;;;;0.00;0.00;;;12.10;67.90;;;10.47;57.15;100838.25;10408260;27;98034;-86
2022/04/29 21:34:57;;;;;;;0.00;0.00;;;12.00;67.20;;;10.33;57.39;100834.28;10400181;27;96938;-86
2022/04/29 21:40:00;;;;;;;0.97;0.93;;;11.90;67.00;;;10.26;57.89;100835.06;10398222;27;97281;-85
2022/04/29 21:45:10;;;;;;;0.00;0.00;;;11.90;69.00;;;10.12;58.13;100831.88;10384660;27;98239;-85
2022/04/29 21:50:14;;;;;;;0.00;0.00;;;11.70;68.70;;;10.04;58.24;100836.25;10420528;27;98392;-85
2022/04/29 21:55:18;;;;;;;0.00;0.00;;;11.60;68.90;;;9.93;58.93;100843.44;10386765;27;96558;-85
2022/04/29 22:00:39;;;;;;;0.00;0.00;;;11.50;70.40;;;9.84;59.89;100844.34;10398883;27;97125;-86
2022/04/29 22:05:46;;;;;;;0.00;0.00;;;11.40;71.10;;;9.74;59.94;100840.88;10392362;27;96659;-85
2022/04/29 22:10:49;;;;;;;0.00;0.00;;;11.30;71.10;;;9.63;60.94;100841.06;10385276;28;96669;-85